• Join FlightAware (Why Join?)
  • Login
  • US Flag 
10:35PM EDT


 

Airport Tracker/Info


-or-


 

Live Flight TrackerFlight Track Log ✈ SKW7427 ✈ 10-Nov-2013 ✈ KMSP - KINL

Flight Track Log - Related Links

Times and Time Zones

All times are in EST time to prevent confusion due to time zone crossing. See the SKW7427 flight status page for this flight to view local times or setup timezone preferences in your user account.

Time Position Orientation Groundspeed Altitude Reporting Facility
EST Latitude Longitude Course Direction KTS MPH feet Rate Location/Type
08:36PM 44.9000 -93.2333 352° North 161 185 2,900  Level Minneapolis TRACON
08:37PM 44.9475 -93.2433 352° North 183 211 4,200 2,460 Climbing Minneapolis Center
08:38PM 45.0061 -93.2514 354° North 218 251 7,700 2,820 Climbing Minneapolis Center
08:39PM 45.0800 -93.2394 North 265 305 10,100 2,820 Climbing Minneapolis Center
08:40PM 45.1597 -93.2278 North 285 328 13,600 2,340 Climbing Minneapolis Center
08:41PM 45.2569 -93.2347 357° North 304 350 14,900 1,260 Climbing Minneapolis Center
08:42PM 45.3506 -93.2392 358° North 336 387 16,300 1,440 Climbing Minneapolis Center
08:43PM 45.4461 -93.2436 358° North 342 394 17,900 1,560 Climbing Minneapolis Center
08:44PM 45.5403 -93.2492 358° North 340 391 19,600 1,560 Climbing Minneapolis Center
08:45PM 45.6367 -93.2547 358° North 345 397 21,100 1,380 Climbing Minneapolis Center
08:46PM 45.7361 -93.2581 359° North 355 409 22,500 1,260 Climbing Minneapolis Center
08:47PM 45.8375 -93.2636 358° North 364 419 23,800 1,260 Climbing Minneapolis Center
08:48PM 45.9619 -93.2708 358° North 372 428 25,200 1,020 Climbing Minneapolis Center
08:49PM 46.0683 -93.2744 359° North 379 436 26,000 360 Climbing Minneapolis Center
08:50PM 46.1797 -93.2792 358° North 394 453 26,000  Level Minneapolis Center
08:51PM 46.2992 -93.2864 358° North 409 471 26,000  Level Minneapolis Center
08:52PM 46.4108 -93.2917 358° North 405 466 26,000  Level Minneapolis Center
08:53PM 46.5175 -93.2983 358° North 387 445 26,000  Level Minneapolis Center
08:54PM 46.6200 -93.3028 358° North 373 429 26,000  Level Minneapolis Center
08:55PM 46.7197 -93.3083 358° North 363 418 26,000  Level Minneapolis Center
08:57PM 46.8206 -93.3125 358° North 363 418 26,000  Level Minneapolis Center
08:58PM 46.9425 -93.3194 358° North 365 420 26,000  Level Minneapolis Center
08:59PM 47.0431 -93.3233 358° North 362 417 26,000 -360 Level Minneapolis Center
09:00PM 47.1442 -93.3300 357° North 363 418 25,300 -1,140 Descending Minneapolis Center
09:01PM 47.2531 -93.3358 358° North 383 441 23,700 -1,560 Descending Minneapolis Center
09:02PM 47.3639 -93.3411 358° North 390 449 22,100 -2,040 Descending Minneapolis Center
09:03PM 47.4686 -93.3478 358° North 373 429 19,500 -2,460 Descending Minneapolis Center
09:04PM 47.5714 -93.3539 358° North 367 422 17,100 -2,400 Descending Minneapolis Center
09:06PM 47.7772 -93.3653 358° North 369 425 12,100 -2,280 Descending Minneapolis Center
09:07PM 47.8783 -93.3694 358° North 320 368 10,100 -2,520 Descending Minneapolis Center
09:08PM 47.9483 -93.3731 358° North 273 314 7,000 -2,820 Descending Minneapolis Center
09:09PM 48.0156 -93.3789 357° North 256 295 4,300 -1,500 Descending Minneapolis Center
09:10PM 48.0792 -93.3819 358° North 243 280 4,000 -180 Descending Minneapolis Center
09:11PM 48.1444 -93.3808 North 237 273 4,000  Level Minneapolis Center
09:12PM 48.2094 -93.3636 10° North 235 270 4,000  Level Minneapolis Center
09:13PM 48.2753 -93.3411 13° North 238 274 4,000  Level Minneapolis Center
09:14PM 48.3556 -93.3164 12° North 242 278 4,000  Level Minneapolis Center
09:15PM 48.4214 -93.2958 12° North 243 280 4,000 240 Level Minneapolis Center
09:16PM 48.4856 -93.2861 North 239 275 4,500 480 Climbing Minneapolis Center
09:17PM 48.5342 -93.3578 316° Northwest 239 275 5,100 -60 Climbing Minneapolis Center
09:18PM 48.5747 -93.4247 312° West 226 260 4,400 -240 Descending Minneapolis Center
09:19PM 48.5506 -93.5019 245° Southwest 237 273 4,700  Climbing Minneapolis Center
09:20PM 48.4869 -93.5186 190° South 244 281 4,400 -660 Descending Minneapolis Center
09:21PM 48.4253 -93.4183 133° Southeast 266 306 3,400 -540 Descending Minneapolis Center
09:22PM 48.3986 -93.3408 117° Southeast 251 289 3,400  Level Minneapolis Center
09:23PM 48.4267 -93.2861 52° Northeast 197 227 3,400  Level Minneapolis Center
09:24PM 48.4658 -93.2731 12° North 165 190 3,400 -240 Level Minneapolis Center
09:25PM 48.4958 -93.2975 332° Northwest 137 158 3,000 -360 Descending Minneapolis Center
09:26PM 48.5233 -93.3442 312° West 131 151 2,700 -300 Descending Minneapolis Center
09:28PM 48.5500 -93.4000 345° North  Level FlightAware Approximate
09:35PM 48.5656 -93.4022 345° North  Level Estimated
09:36PM 48.5656 -93.4022 345° North  Level Estimated
09:37PM 48.5656 -93.4022 345° North  Level Estimated
09:38PM 48.5656 -93.4022 345° North  Level Estimated
09:39PM 48.5656 -93.4022 345° North  Level Estimated
09:40PM 48.5656 -93.4022 345° North  Level Estimated
09:41PM 48.5656 -93.4022 345° North  Level Estimated